sensor_id;sensor_type;location;lat;lon;timestamp;P1;durP1;ratioP1;P2;durP2;ratioP2
3068;SDS011;1545;51.728;8.796;2023-03-11T00:00:12;17.37;;;11.00;;
3068;SDS011;1545;51.728;8.796;2023-03-11T00:02:41;19.40;;;11.50;;
3068;SDS011;1545;51.728;8.796;2023-03-11T00:05:07;17.70;;;11.20;;
3068;SDS011;1545;51.728;8.796;2023-03-11T00:07:36;19.63;;;11.03;;
3068;SDS011;1545;51.728;8.796;2023-03-11T00:10:03;17.23;;;10.70;;
3068;SDS011;1545;51.728;8.796;2023-03-11T00:12:30;18.70;;;11.53;;
3068;SDS011;1545;51.728;8.796;2023-03-11T00:14:55;17.50;;;10.87;;
3068;SDS011;1545;51.728;8.796;2023-03-11T00:17:21;17.67;;;11.40;;
3068;SDS011;1545;51.728;8.796;2023-03-11T00:19:46;19.00;;;10.77;;
3068;SDS011;1545;51.728;8.796;2023-03-11T00:22:12;14.87;;;10.63;;
3068;SDS011;1545;51.728;8.796;2023-03-11T00:24:37;17.67;;;10.37;;
3068;SDS011;1545;51.728;8.796;2023-03-11T00:27:03;19.30;;;10.83;;
3068;SDS011;1545;51.728;8.796;2023-03-11T00:29:28;17.37;;;9.30;;
3068;SDS011;1545;51.728;8.796;2023-03-11T00:31:54;17.83;;;10.67;;
3068;SDS011;1545;51.728;8.796;2023-03-11T00:34:19;14.87;;;9.47;;
3068;SDS011;1545;51.728;8.796;2023-03-11T00:36:45;15.90;;;10.30;;
3068;SDS011;1545;51.728;8.796;2023-03-11T00:39:10;15.30;;;10.17;;
3068;SDS011;1545;51.728;8.796;2023-03-11T00:41:36;17.23;;;10.30;;
3068;SDS011;1545;51.728;8.796;2023-03-11T00:44:01;14.43;;;9.60;;
3068;SDS011;1545;51.728;8.796;2023-03-11T00:46:27;19.30;;;10.17;;
3068;SDS011;1545;51.728;8.796;2023-03-11T00:48:54;14.53;;;9.80;;
3068;SDS011;1545;51.728;8.796;2023-03-11T00:51:20;18.77;;;10.40;;
3068;SDS011;1545;51.728;8.796;2023-03-11T00:53:46;16.20;;;10.17;;
3068;SDS011;1545;51.728;8.796;2023-03-11T00:56:12;15.60;;;10.27;;
3068;SDS011;1545;51.728;8.796;2023-03-11T00:58:39;17.10;;;10.60;;
3068;SDS011;1545;51.728;8.796;2023-03-11T01:01:11;22.83;;;10.67;;
3068;SDS011;1545;51.728;8.796;2023-03-11T01:03:39;17.60;;;10.77;;
3068;SDS011;1545;51.728;8.796;2023-03-11T01:06:05;20.23;;;10.10;;
3068;SDS011;1545;51.728;8.796;2023-03-11T01:08:31;15.90;;;10.13;;
3068;SDS011;1545;51.728;8.796;2023-03-11T01:10:57;17.97;;;10.60;;
3068;SDS011;1545;51.728;8.796;2023-03-11T01:13:23;18.37;;;10.30;;
3068;SDS011;1545;51.728;8.796;2023-03-11T01:15:49;16.53;;;10.43;;
3068;SDS011;1545;51.728;8.796;2023-03-11T01:18:15;18.00;;;10.90;;
3068;SDS011;1545;51.728;8.796;2023-03-11T01:20:41;20.07;;;11.17;;
3068;SDS011;1545;51.728;8.796;2023-03-11T01:23:07;17.37;;;10.63;;
3068;SDS011;1545;51.728;8.796;2023-03-11T01:25:33;15.27;;;10.53;;
3068;SDS011;1545;51.728;8.796;2023-03-11T01:27:59;16.53;;;10.73;;
3068;SDS011;1545;51.728;8.796;2023-03-11T01:30:25;21.77;;;10.67;;
3068;SDS011;1545;51.728;8.796;2023-03-11T01:32:52;16.03;;;11.07;;
3068;SDS011;1545;51.728;8.796;2023-03-11T01:35:19;22.73;;;11.17;;
3068;SDS011;1545;51.728;8.796;2023-03-11T01:37:46;20.47;;;11.67;;
3068;SDS011;1545;51.728;8.796;2023-03-11T01:40:19;22.37;;;11.67;;
3068;SDS011;1545;51.728;8.796;2023-03-11T01:43:00;18.70;;;11.07;;
3068;SDS011;1545;51.728;8.796;2023-03-11T01:48:33;22.47;;;11.60;;
3068;SDS011;1545;51.728;8.796;2023-03-11T01:50:58;17.03;;;10.73;;
3068;SDS011;1545;51.728;8.796;2023-03-11T01:53:25;20.67;;;10.80;;
3068;SDS011;1545;51.728;8.796;2023-03-11T01:55:50;23.63;;;11.20;;
3068;SDS011;1545;51.728;8.796;2023-03-11T01:58:17;19.40;;;10.97;;
3068;SDS011;1545;51.728;8.796;2023-03-11T02:00:46;27.47;;;11.23;;
3068;SDS011;1545;51.728;8.796;2023-03-11T02:03:23;18.70;;;10.57;;
3068;SDS011;1545;51.728;8.796;2023-03-11T02:05:55;19.50;;;11.00;;
3068;SDS011;1545;51.728;8.796;2023-03-11T02:08:23;16.63;;;9.70;;
3068;SDS011;1545;51.728;8.796;2023-03-11T02:10:49;15.80;;;9.50;;
3068;SDS011;1545;51.728;8.796;2023-03-11T02:13:17;17.70;;;10.00;;
3068;SDS011;1545;51.728;8.796;2023-03-11T02:15:43;17.53;;;9.80;;
3068;SDS011;1545;51.728;8.796;2023-03-11T02:18:09;17.30;;;9.60;;
3068;SDS011;1545;51.728;8.796;2023-03-11T02:20:44;18.83;;;10.90;;
3068;SDS011;1545;51.728;8.796;2023-03-11T02:23:14;19.67;;;9.47;;
3068;SDS011;1545;51.728;8.796;2023-03-11T02:28:32;19.50;;;9.33;;
3068;SDS011;1545;51.728;8.796;2023-03-11T02:30:59;17.73;;;9.97;;
3068;SDS011;1545;51.728;8.796;2023-03-11T02:33:25;20.87;;;10.07;;
3068;SDS011;1545;51.728;8.796;2023-03-11T02:35:54;19.20;;;10.07;;
3068;SDS011;1545;51.728;8.796;2023-03-11T02:38:21;21.97;;;10.13;;
3068;SDS011;1545;51.728;8.796;2023-03-11T02:40:54;21.57;;;10.13;;
3068;SDS011;1545;51.728;8.796;2023-03-11T02:43:22;21.73;;;10.00;;
3068;SDS011;1545;51.728;8.796;2023-03-11T02:45:57;19.73;;;10.37;;
3068;SDS011;1545;51.728;8.796;2023-03-11T02:48:23;20.17;;;9.57;;
3068;SDS011;1545;51.728;8.796;2023-03-11T02:50:50;22.43;;;10.50;;
3068;SDS011;1545;51.728;8.796;2023-03-11T02:53:16;23.30;;;10.30;;
3068;SDS011;1545;51.728;8.796;2023-03-11T02:55:41;19.73;;;10.17;;
3068;SDS011;1545;51.728;8.796;2023-03-11T02:58:07;28.77;;;10.40;;
3068;SDS011;1545;51.728;8.796;2023-03-11T03:00:32;16.73;;;9.50;;
3068;SDS011;1545;51.728;8.796;2023-03-11T03:02:58;19.97;;;9.97;;
3068;SDS011;1545;51.728;8.796;2023-03-11T03:05:24;20.43;;;9.93;;
3068;SDS011;1545;51.728;8.796;2023-03-11T03:07:50;18.83;;;10.03;;
3068;SDS011;1545;51.728;8.796;2023-03-11T03:10:16;25.77;;;11.07;;
3068;SDS011;1545;51.728;8.796;2023-03-11T03:12:43;25.37;;;10.93;;
3068;SDS011;1545;51.728;8.796;2023-03-11T03:15:08;19.23;;;10.63;;
3068;SDS011;1545;51.728;8.796;2023-03-11T03:17:35;17.83;;;10.43;;
3068;SDS011;1545;51.728;8.796;2023-03-11T03:20:01;29.43;;;11.33;;
3068;SDS011;1545;51.728;8.796;2023-03-11T03:22:29;22.30;;;10.33;;
3068;SDS011;1545;51.728;8.796;2023-03-11T03:24:55;24.30;;;10.97;;
3068;SDS011;1545;51.728;8.796;2023-03-11T03:27:20;18.47;;;10.20;;
3068;SDS011;1545;51.728;8.796;2023-03-11T03:29:45;23.37;;;10.47;;
3068;SDS011;1545;51.728;8.796;2023-03-11T03:32:11;19.83;;;11.27;;
3068;SDS011;1545;51.728;8.796;2023-03-11T03:34:36;18.33;;;10.73;;
3068;SDS011;1545;51.728;8.796;2023-03-11T03:37:02;22.00;;;11.00;;
3068;SDS011;1545;51.728;8.796;2023-03-11T03:39:27;19.43;;;11.07;;
3068;SDS011;1545;51.728;8.796;2023-03-11T03:41:53;16.83;;;10.13;;
3068;SDS011;1545;51.728;8.796;2023-03-11T03:44:18;22.50;;;11.07;;
3068;SDS011;1545;51.728;8.796;2023-03-11T03:46:44;15.93;;;10.33;;
3068;SDS011;1545;51.728;8.796;2023-03-11T03:49:09;20.43;;;10.47;;
3068;SDS011;1545;51.728;8.796;2023-03-11T03:51:35;18.50;;;10.47;;
3068;SDS011;1545;51.728;8.796;2023-03-11T03:54:00;20.30;;;10.53;;
3068;SDS011;1545;51.728;8.796;2023-03-11T03:56:26;19.33;;;10.30;;
3068;SDS011;1545;51.728;8.796;2023-03-11T03:58:52;19.10;;;10.53;;
3068;SDS011;1545;51.728;8.796;2023-03-11T04:01:18;24.70;;;10.17;;
3068;SDS011;1545;51.728;8.796;2023-03-11T04:03:44;25.67;;;10.60;;
3068;SDS011;1545;51.728;8.796;2023-03-11T04:06:17;15.43;;;9.10;;
3068;SDS011;1545;51.728;8.796;2023-03-11T04:08:49;15.50;;;9.97;;
3068;SDS011;1545;51.728;8.796;2023-03-11T04:11:16;23.70;;;10.33;;
3068;SDS011;1545;51.728;8.796;2023-03-11T04:13:41;24.20;;;10.47;;
3068;SDS011;1545;51.728;8.796;2023-03-11T04:16:09;20.17;;;10.20;;
3068;SDS011;1545;51.728;8.796;2023-03-11T04:18:48;23.37;;;10.33;;
3068;SDS011;1545;51.728;8.796;2023-03-11T04:21:14;19.90;;;9.60;;
3068;SDS011;1545;51.728;8.796;2023-03-11T04:23:39;24.00;;;10.10;;
3068;SDS011;1545;51.728;8.796;2023-03-11T04:26:05;19.23;;;9.77;;
3068;SDS011;1545;51.728;8.796;2023-03-11T04:28:30;19.67;;;9.20;;
3068;SDS011;1545;51.728;8.796;2023-03-11T04:30:56;20.13;;;10.00;;
3068;SDS011;1545;51.728;8.796;2023-03-11T04:33:21;25.47;;;9.57;;
3068;SDS011;1545;51.728;8.796;2023-03-11T04:35:47;16.60;;;10.13;;
3068;SDS011;1545;51.728;8.796;2023-03-11T04:38:12;23.70;;;10.03;;
3068;SDS011;1545;51.728;8.796;2023-03-11T04:40:38;24.53;;;10.40;;
3068;SDS011;1545;51.728;8.796;2023-03-11T04:43:04;28.30;;;10.77;;
3068;SDS011;1545;51.728;8.796;2023-03-11T04:45:30;18.20;;;10.07;;
3068;SDS011;1545;51.728;8.796;2023-03-11T04:47:55;19.53;;;9.77;;
3068;SDS011;1545;51.728;8.796;2023-03-11T04:50:21;19.87;;;10.07;;
3068;SDS011;1545;51.728;8.796;2023-03-11T04:52:46;22.97;;;10.60;;
3068;SDS011;1545;51.728;8.796;2023-03-11T04:55:12;21.10;;;9.80;;
3068;SDS011;1545;51.728;8.796;2023-03-11T04:57:39;20.97;;;9.77;;
3068;SDS011;1545;51.728;8.796;2023-03-11T05:00:06;20.23;;;9.93;;
3068;SDS011;1545;51.728;8.796;2023-03-11T05:02:35;18.70;;;10.03;;
3068;SDS011;1545;51.728;8.796;2023-03-11T05:05:02;23.23;;;10.27;;
3068;SDS011;1545;51.728;8.796;2023-03-11T05:07:28;24.87;;;9.67;;
3068;SDS011;1545;51.728;8.796;2023-03-11T05:09:53;24.00;;;9.93;;
3068;SDS011;1545;51.728;8.796;2023-03-11T05:12:19;17.43;;;8.60;;
3068;SDS011;1545;51.728;8.796;2023-03-11T05:14:44;28.23;;;9.70;;
3068;SDS011;1545;51.728;8.796;2023-03-11T05:17:10;19.57;;;8.83;;
3068;SDS011;1545;51.728;8.796;2023-03-11T05:19:37;21.50;;;8.77;;
3068;SDS011;1545;51.728;8.796;2023-03-11T05:22:03;24.00;;;8.60;;
3068;SDS011;1545;51.728;8.796;2023-03-11T05:24:30;21.57;;;8.73;;
3068;SDS011;1545;51.728;8.796;2023-03-11T05:26:56;18.80;;;8.73;;
3068;SDS011;1545;51.728;8.796;2023-03-11T05:29:22;17.90;;;8.30;;
3068;SDS011;1545;51.728;8.796;2023-03-11T05:31:48;16.47;;;7.27;;
3068;SDS011;1545;51.728;8.796;2023-03-11T05:34:14;19.10;;;7.97;;
3068;SDS011;1545;51.728;8.796;2023-03-11T05:36:39;26.07;;;8.20;;
3068;SDS011;1545;51.728;8.796;2023-03-11T05:39:05;23.87;;;8.00;;
3068;SDS011;1545;51.728;8.796;2023-03-11T05:41:31;16.47;;;7.30;;
3068;SDS011;1545;51.728;8.796;2023-03-11T05:43:56;15.13;;;7.20;;
3068;SDS011;1545;51.728;8.796;2023-03-11T05:46:22;20.27;;;7.40;;
3068;SDS011;1545;51.728;8.796;2023-03-11T05:48:47;21.63;;;7.50;;
3068;SDS011;1545;51.728;8.796;2023-03-11T05:51:13;24.43;;;7.80;;
3068;SDS011;1545;51.728;8.796;2023-03-11T05:53:41;18.03;;;7.07;;
3068;SDS011;1545;51.728;8.796;2023-03-11T05:56:12;16.57;;;7.07;;
3068;SDS011;1545;51.728;8.796;2023-03-11T05:58:38;20.27;;;7.20;;
3068;SDS011;1545;51.728;8.796;2023-03-11T06:01:08;15.97;;;6.90;;
3068;SDS011;1545;51.728;8.796;2023-03-11T06:03:34;18.40;;;7.63;;
3068;SDS011;1545;51.728;8.796;2023-03-11T06:06:00;20.70;;;7.37;;
3068;SDS011;1545;51.728;8.796;2023-03-11T06:08:26;17.53;;;7.17;;
3068;SDS011;1545;51.728;8.796;2023-03-11T06:10:51;20.80;;;7.30;;
3068;SDS011;1545;51.728;8.796;2023-03-11T06:13:17;23.23;;;7.80;;
3068;SDS011;1545;51.728;8.796;2023-03-11T06:15:42;14.17;;;6.80;;
3068;SDS011;1545;51.728;8.796;2023-03-11T06:18:09;22.00;;;7.63;;
3068;SDS011;1545;51.728;8.796;2023-03-11T06:20:35;15.13;;;7.03;;
3068;SDS011;1545;51.728;8.796;2023-03-11T06:23:01;16.10;;;7.50;;
3068;SDS011;1545;51.728;8.796;2023-03-11T06:25:27;16.07;;;7.07;;
3068;SDS011;1545;51.728;8.796;2023-03-11T06:27:52;19.60;;;7.37;;
3068;SDS011;1545;51.728;8.796;2023-03-11T06:30:18;16.57;;;7.00;;
3068;SDS011;1545;51.728;8.796;2023-03-11T06:32:44;16.40;;;6.60;;
3068;SDS011;1545;51.728;8.796;2023-03-11T06:35:10;15.40;;;6.43;;
3068;SDS011;1545;51.728;8.796;2023-03-11T06:37:36;14.63;;;6.53;;
3068;SDS011;1545;51.728;8.796;2023-03-11T06:40:02;21.80;;;6.50;;
3068;SDS011;1545;51.728;8.796;2023-03-11T06:42:29;13.40;;;6.17;;
3068;SDS011;1545;51.728;8.796;2023-03-11T06:44:55;16.13;;;5.93;;
3068;SDS011;1545;51.728;8.796;2023-03-11T06:47:20;13.33;;;5.97;;
3068;SDS011;1545;51.728;8.796;2023-03-11T06:49:46;24.57;;;6.40;;
3068;SDS011;1545;51.728;8.796;2023-03-11T06:52:11;19.33;;;6.30;;
3068;SDS011;1545;51.728;8.796;2023-03-11T06:54:37;14.40;;;6.30;;
3068;SDS011;1545;51.728;8.796;2023-03-11T06:57:05;14.40;;;6.20;;
3068;SDS011;1545;51.728;8.796;2023-03-11T06:59:31;16.33;;;5.93;;
3068;SDS011;1545;51.728;8.796;2023-03-11T07:01:57;17.00;;;6.20;;
3068;SDS011;1545;51.728;8.796;2023-03-11T07:04:22;11.10;;;5.60;;
3068;SDS011;1545;51.728;8.796;2023-03-11T07:06:48;12.07;;;5.50;;
3068;SDS011;1545;51.728;8.796;2023-03-11T07:09:14;14.40;;;6.53;;
3068;SDS011;1545;51.728;8.796;2023-03-11T07:11:39;17.40;;;6.13;;
3068;SDS011;1545;51.728;8.796;2023-03-11T07:14:05;17.50;;;5.70;;
3068;SDS011;1545;51.728;8.796;2023-03-11T07:16:30;12.70;;;5.67;;
3068;SDS011;1545;51.728;8.796;2023-03-11T07:18:57;15.67;;;5.97;;
3068;SDS011;1545;51.728;8.796;2023-03-11T07:21:25;13.50;;;6.03;;
3068;SDS011;1545;51.728;8.796;2023-03-11T07:23:55;17.47;;;5.83;;
3068;SDS011;1545;51.728;8.796;2023-03-11T07:26:22;14.50;;;5.63;;
3068;SDS011;1545;51.728;8.796;2023-03-11T07:28:48;17.17;;;5.97;;
3068;SDS011;1545;51.728;8.796;2023-03-11T07:31:16;12.87;;;5.50;;
3068;SDS011;1545;51.728;8.796;2023-03-11T07:33:43;14.10;;;5.70;;
3068;SDS011;1545;51.728;8.796;2023-03-11T07:36:19;15.47;;;5.10;;
3068;SDS011;1545;51.728;8.796;2023-03-11T07:38:46;16.30;;;5.70;;
3068;SDS011;1545;51.728;8.796;2023-03-11T07:41:12;10.80;;;4.83;;
3068;SDS011;1545;51.728;8.796;2023-03-11T07:43:39;15.03;;;5.00;;
3068;SDS011;1545;51.728;8.796;2023-03-11T07:48:34;14.00;;;5.03;;
3068;SDS011;1545;51.728;8.796;2023-03-11T07:51:01;12.83;;;4.60;;
3068;SDS011;1545;51.728;8.796;2023-03-11T07:53:28;11.73;;;4.80;;
3068;SDS011;1545;51.728;8.796;2023-03-11T07:55:57;11.30;;;4.47;;
3068;SDS011;1545;51.728;8.796;2023-03-11T07:58:23;11.03;;;4.60;;
3068;SDS011;1545;51.728;8.796;2023-03-11T08:00:49;15.17;;;5.00;;
3068;SDS011;1545;51.728;8.796;2023-03-11T08:03:15;15.97;;;4.50;;
3068;SDS011;1545;51.728;8.796;2023-03-11T08:05:40;17.03;;;4.57;;
3068;SDS011;1545;51.728;8.796;2023-03-11T08:08:06;12.30;;;4.63;;
3068;SDS011;1545;51.728;8.796;2023-03-11T08:10:32;17.40;;;4.60;;
3068;SDS011;1545;51.728;8.796;2023-03-11T08:13:00;15.47;;;4.43;;
3068;SDS011;1545;51.728;8.796;2023-03-11T08:15:26;14.87;;;4.60;;
3068;SDS011;1545;51.728;8.796;2023-03-11T08:17:51;17.93;;;4.83;;
3068;SDS011;1545;51.728;8.796;2023-03-11T08:20:17;8.53;;;4.30;;
3068;SDS011;1545;51.728;8.796;2023-03-11T08:22:42;14.57;;;4.63;;
3068;SDS011;1545;51.728;8.796;2023-03-11T08:25:08;13.10;;;4.40;;
3068;SDS011;1545;51.728;8.796;2023-03-11T08:27:34;12.33;;;4.40;;
3068;SDS011;1545;51.728;8.796;2023-03-11T08:29:59;15.97;;;4.37;;
3068;SDS011;1545;51.728;8.796;2023-03-11T08:32:25;7.00;;;3.90;;
3068;SDS011;1545;51.728;8.796;2023-03-11T08:34:50;12.33;;;4.10;;
3068;SDS011;1545;51.728;8.796;2023-03-11T08:37:16;20.90;;;4.40;;
3068;SDS011;1545;51.728;8.796;2023-03-11T08:39:41;11.60;;;4.00;;
3068;SDS011;1545;51.728;8.796;2023-03-11T08:42:07;7.47;;;3.33;;
3068;SDS011;1545;51.728;8.796;2023-03-11T08:44:32;15.90;;;3.60;;
3068;SDS011;1545;51.728;8.796;2023-03-11T08:46:59;15.33;;;4.10;;
3068;SDS011;1545;51.728;8.796;2023-03-11T08:49:25;11.90;;;4.50;;
3068;SDS011;1545;51.728;8.796;2023-03-11T08:51:50;11.97;;;3.77;;
3068;SDS011;1545;51.728;8.796;2023-03-11T08:54:16;10.30;;;3.70;;
3068;SDS011;1545;51.728;8.796;2023-03-11T08:56:41;8.20;;;3.30;;
3068;SDS011;1545;51.728;8.796;2023-03-11T08:59:07;8.83;;;3.73;;
3068;SDS011;1545;51.728;8.796;2023-03-11T09:01:32;13.67;;;3.70;;
3068;SDS011;1545;51.728;8.796;2023-03-11T09:03:58;12.87;;;3.87;;
3068;SDS011;1545;51.728;8.796;2023-03-11T09:06:23;11.17;;;3.50;;
3068;SDS011;1545;51.728;8.796;2023-03-11T09:08:49;13.30;;;3.73;;
3068;SDS011;1545;51.728;8.796;2023-03-11T09:11:16;9.57;;;3.47;;
3068;SDS011;1545;51.728;8.796;2023-03-11T09:13:42;11.07;;;3.57;;
3068;SDS011;1545;51.728;8.796;2023-03-11T09:16:12;10.23;;;3.60;;
3068;SDS011;1545;51.728;8.796;2023-03-11T09:18:39;10.27;;;3.93;;
3068;SDS011;1545;51.728;8.796;2023-03-11T09:21:05;11.30;;;4.07;;
3068;SDS011;1545;51.728;8.796;2023-03-11T09:23:30;15.20;;;4.10;;
3068;SDS011;1545;51.728;8.796;2023-03-11T09:25:56;11.70;;;3.97;;
3068;SDS011;1545;51.728;8.796;2023-03-11T09:28:22;13.80;;;3.87;;
3068;SDS011;1545;51.728;8.796;2023-03-11T09:30:47;10.17;;;3.77;;
3068;SDS011;1545;51.728;8.796;2023-03-11T09:33:13;12.93;;;3.20;;
3068;SDS011;1545;51.728;8.796;2023-03-11T09:35:38;9.83;;;3.60;;
3068;SDS011;1545;51.728;8.796;2023-03-11T09:38:04;12.37;;;3.60;;
3068;SDS011;1545;51.728;8.796;2023-03-11T09:40:50;13.73;;;3.57;;
3068;SDS011;1545;51.728;8.796;2023-03-11T09:43:38;16.67;;;3.90;;
3068;SDS011;1545;51.728;8.796;2023-03-11T09:49:19;10.33;;;3.70;;
3068;SDS011;1545;51.728;8.796;2023-03-11T09:51:48;12.73;;;3.90;;
3068;SDS011;1545;51.728;8.796;2023-03-11T09:54:29;9.93;;;4.47;;
3068;SDS011;1545;51.728;8.796;2023-03-11T09:57:01;12.80;;;3.97;;
3068;SDS011;1545;51.728;8.796;2023-03-11T09:59:31;13.43;;;3.80;;
3068;SDS011;1545;51.728;8.796;2023-03-11T10:01:59;8.47;;;3.83;;
3068;SDS011;1545;51.728;8.796;2023-03-11T10:04:32;10.57;;;3.47;;
3068;SDS011;1545;51.728;8.796;2023-03-11T10:07:09;7.37;;;3.07;;
3068;SDS011;1545;51.728;8.796;2023-03-11T10:09:42;14.70;;;3.53;;
3068;SDS011;1545;51.728;8.796;2023-03-11T10:12:33;11.87;;;3.47;;
3068;SDS011;1545;51.728;8.796;2023-03-11T10:15:23;13.57;;;3.47;;
3068;SDS011;1545;51.728;8.796;2023-03-11T10:23:49;18.90;;;3.33;;
3068;SDS011;1545;51.728;8.796;2023-03-11T10:26:28;10.97;;;3.30;;
3068;SDS011;1545;51.728;8.796;2023-03-11T10:29:20;8.73;;;2.90;;
3068;SDS011;1545;51.728;8.796;2023-03-11T10:34:38;7.00;;;2.90;;
3068;SDS011;1545;51.728;8.796;2023-03-11T10:37:16;10.43;;;3.40;;
3068;SDS011;1545;51.728;8.796;2023-03-11T10:39:51;9.73;;;2.97;;
3068;SDS011;1545;51.728;8.796;2023-03-11T10:42:18;11.50;;;3.00;;
3068;SDS011;1545;51.728;8.796;2023-03-11T10:44:51;14.57;;;2.87;;
3068;SDS011;1545;51.728;8.796;2023-03-11T10:47:20;6.80;;;3.00;;
3068;SDS011;1545;51.728;8.796;2023-03-11T10:49:48;16.00;;;3.20;;
3068;SDS011;1545;51.728;8.796;2023-03-11T10:52:14;11.97;;;3.37;;
3068;SDS011;1545;51.728;8.796;2023-03-11T10:54:40;9.93;;;3.50;;
3068;SDS011;1545;51.728;8.796;2023-03-11T10:57:19;7.57;;;2.97;;
3068;SDS011;1545;51.728;8.796;2023-03-11T10:59:51;13.87;;;3.00;;
3068;SDS011;1545;51.728;8.796;2023-03-11T11:04:50;12.57;;;3.17;;
3068;SDS011;1545;51.728;8.796;2023-03-11T11:07:29;9.20;;;3.37;;
3068;SDS011;1545;51.728;8.796;2023-03-11T11:15:48;6.20;;;2.70;;
3068;SDS011;1545;51.728;8.796;2023-03-11T11:18:20;9.37;;;2.90;;
3068;SDS011;1545;51.728;8.796;2023-03-11T11:20:56;10.30;;;3.00;;
3068;SDS011;1545;51.728;8.796;2023-03-11T11:23:40;9.57;;;3.13;;
3068;SDS011;1545;51.728;8.796;2023-03-11T11:26:20;13.27;;;3.63;;
3068;SDS011;1545;51.728;8.796;2023-03-11T11:29:21;14.30;;;2.97;;
3068;SDS011;1545;51.728;8.796;2023-03-11T11:31:43;9.53;;;2.90;;
3068;SDS011;1545;51.728;8.796;2023-03-11T11:36:59;11.97;;;3.00;;
3068;SDS011;1545;51.728;8.796;2023-03-11T11:39:29;9.80;;;2.90;;
3068;SDS011;1545;51.728;8.796;2023-03-11T11:42:00;13.73;;;2.80;;
3068;SDS011;1545;51.728;8.796;2023-03-11T11:44:30;13.83;;;3.27;;
3068;SDS011;1545;51.728;8.796;2023-03-11T11:47:15;10.03;;;2.90;;
3068;SDS011;1545;51.728;8.796;2023-03-11T11:49:55;5.13;;;2.20;;
3068;SDS011;1545;51.728;8.796;2023-03-11T11:52:26;13.37;;;2.77;;
3068;SDS011;1545;51.728;8.796;2023-03-11T11:54:57;8.90;;;3.20;;
3068;SDS011;1545;51.728;8.796;2023-03-11T11:57:30;7.63;;;2.47;;
3068;SDS011;1545;51.728;8.796;2023-03-11T11:59:56;7.63;;;2.43;;
3068;SDS011;1545;51.728;8.796;2023-03-11T12:02:26;19.97;;;3.00;;
3068;SDS011;1545;51.728;8.796;2023-03-11T12:05:28;10.57;;;2.80;;
3068;SDS011;1545;51.728;8.796;2023-03-11T12:08:00;10.53;;;3.07;;
3068;SDS011;1545;51.728;8.796;2023-03-11T12:10:44;7.57;;;3.20;;
3068;SDS011;1545;51.728;8.796;2023-03-11T12:13:21;12.93;;;2.77;;
3068;SDS011;1545;51.728;8.796;2023-03-11T12:15:49;7.40;;;2.67;;
3068;SDS011;1545;51.728;8.796;2023-03-11T12:18:29;15.37;;;2.87;;
3068;SDS011;1545;51.728;8.796;2023-03-11T12:21:07;12.33;;;3.10;;
3068;SDS011;1545;51.728;8.796;2023-03-11T12:26:41;17.93;;;3.40;;
3068;SDS011;1545;51.728;8.796;2023-03-11T12:32:00;7.57;;;2.90;;
3068;SDS011;1545;51.728;8.796;2023-03-11T12:34:27;14.17;;;2.70;;
3068;SDS011;1545;51.728;8.796;2023-03-11T12:36:56;10.43;;;2.97;;
3068;SDS011;1545;51.728;8.796;2023-03-11T12:39:26;8.77;;;2.60;;
3068;SDS011;1545;51.728;8.796;2023-03-11T12:44:38;13.87;;;2.80;;
3068;SDS011;1545;51.728;8.796;2023-03-11T12:49:37;10.63;;;2.70;;
3068;SDS011;1545;51.728;8.796;2023-03-11T12:52:15;8.87;;;2.73;;
3068;SDS011;1545;51.728;8.796;2023-03-11T12:54:43;7.13;;;2.50;;
3068;SDS011;1545;51.728;8.796;2023-03-11T12:57:24;13.40;;;2.60;;
3068;SDS011;1545;51.728;8.796;2023-03-11T13:11:25;9.43;;;2.90;;
3068;SDS011;1545;51.728;8.796;2023-03-11T13:14:14;16.23;;;3.03;;
3068;SDS011;1545;51.728;8.796;2023-03-11T13:16:54;10.07;;;2.97;;
3068;SDS011;1545;51.728;8.796;2023-03-11T13:21:56;9.47;;;2.83;;
3068;SDS011;1545;51.728;8.796;2023-03-11T13:26:54;9.60;;;3.23;;
3068;SDS011;1545;51.728;8.796;2023-03-11T13:32:20;8.20;;;2.53;;
3068;SDS011;1545;51.728;8.796;2023-03-11T13:40:38;5.97;;;2.40;;
3068;SDS011;1545;51.728;8.796;2023-03-11T13:43:10;7.33;;;2.43;;
3068;SDS011;1545;51.728;8.796;2023-03-11T13:45:51;7.23;;;2.43;;
3068;SDS011;1545;51.728;8.796;2023-03-11T13:48:27;14.47;;;2.60;;
3068;SDS011;1545;51.728;8.796;2023-03-11T13:50:58;8.87;;;2.20;;
3068;SDS011;1545;51.728;8.796;2023-03-11T13:53:29;4.80;;;2.27;;
3068;SDS011;1545;51.728;8.796;2023-03-11T13:55:59;5.10;;;2.20;;
3068;SDS011;1545;51.728;8.796;2023-03-11T13:58:26;6.17;;;2.60;;
3068;SDS011;1545;51.728;8.796;2023-03-11T14:00:53;10.43;;;3.00;;
3068;SDS011;1545;51.728;8.796;2023-03-11T14:03:23;5.97;;;2.23;;
3068;SDS011;1545;51.728;8.796;2023-03-11T14:06:02;10.60;;;2.57;;
3068;SDS011;1545;51.728;8.796;2023-03-11T14:08:31;8.97;;;2.47;;
3068;SDS011;1545;51.728;8.796;2023-03-11T14:13:39;6.37;;;2.40;;
3068;SDS011;1545;51.728;8.796;2023-03-11T14:16:07;15.73;;;2.63;;
3068;SDS011;1545;51.728;8.796;2023-03-11T14:18:43;6.47;;;2.60;;
3068;SDS011;1545;51.728;8.796;2023-03-11T14:21:11;10.17;;;3.13;;
3068;SDS011;1545;51.728;8.796;2023-03-11T14:23:42;7.60;;;2.50;;
3068;SDS011;1545;51.728;8.796;2023-03-11T14:26:13;13.37;;;2.50;;
3068;SDS011;1545;51.728;8.796;2023-03-11T14:28:48;4.97;;;2.37;;
3068;SDS011;1545;51.728;8.796;2023-03-11T14:31:29;13.37;;;3.17;;
3068;SDS011;1545;51.728;8.796;2023-03-11T14:36:29;10.20;;;2.83;;
3068;SDS011;1545;51.728;8.796;2023-03-11T14:39:03;7.83;;;2.73;;
3068;SDS011;1545;51.728;8.796;2023-03-11T14:41:28;5.90;;;2.40;;
3068;SDS011;1545;51.728;8.796;2023-03-11T14:43:54;8.53;;;2.43;;
3068;SDS011;1545;51.728;8.796;2023-03-11T14:46:21;7.63;;;2.50;;
3068;SDS011;1545;51.728;8.796;2023-03-11T14:48:53;12.03;;;2.70;;
3068;SDS011;1545;51.728;8.796;2023-03-11T14:51:23;9.57;;;2.40;;
3068;SDS011;1545;51.728;8.796;2023-03-11T14:56:39;7.20;;;2.23;;
3068;SDS011;1545;51.728;8.796;2023-03-11T14:59:13;9.30;;;2.80;;
3068;SDS011;1545;51.728;8.796;2023-03-11T15:01:43;12.20;;;2.50;;
3068;SDS011;1545;51.728;8.796;2023-03-11T15:04:11;5.03;;;2.27;;
3068;SDS011;1545;51.728;8.796;2023-03-11T15:06:38;7.87;;;2.43;;
3068;SDS011;1545;51.728;8.796;2023-03-11T15:09:14;4.50;;;2.20;;
3068;SDS011;1545;51.728;8.796;2023-03-11T15:11:43;7.60;;;2.53;;
3068;SDS011;1545;51.728;8.796;2023-03-11T15:14:16;9.27;;;2.40;;
3068;SDS011;1545;51.728;8.796;2023-03-11T15:16:48;8.60;;;2.40;;
3068;SDS011;1545;51.728;8.796;2023-03-11T15:21:52;4.53;;;2.10;;
3068;SDS011;1545;51.728;8.796;2023-03-11T15:24:21;7.40;;;2.23;;
3068;SDS011;1545;51.728;8.796;2023-03-11T15:29:53;10.70;;;2.57;;
3068;SDS011;1545;51.728;8.796;2023-03-11T15:32:22;5.43;;;2.40;;
3068;SDS011;1545;51.728;8.796;2023-03-11T15:34:58;6.57;;;2.13;;
3068;SDS011;1545;51.728;8.796;2023-03-11T15:37:36;7.07;;;2.00;;
3068;SDS011;1545;51.728;8.796;2023-03-11T15:40:22;7.50;;;2.67;;
3068;SDS011;1545;51.728;8.796;2023-03-11T15:43:16;6.43;;;2.27;;
3068;SDS011;1545;51.728;8.796;2023-03-11T15:45:45;4.90;;;2.03;;
3068;SDS011;1545;51.728;8.796;2023-03-11T15:48:12;8.63;;;2.23;;
3068;SDS011;1545;51.728;8.796;2023-03-11T15:50:48;7.87;;;1.80;;
3068;SDS011;1545;51.728;8.796;2023-03-11T15:53:18;6.13;;;2.30;;
3068;SDS011;1545;51.728;8.796;2023-03-11T15:55:44;7.37;;;2.07;;
3068;SDS011;1545;51.728;8.796;2023-03-11T15:58:11;6.50;;;2.03;;
3068;SDS011;1545;51.728;8.796;2023-03-11T16:00:40;7.90;;;2.57;;
3068;SDS011;1545;51.728;8.796;2023-03-11T16:03:10;9.07;;;2.60;;
3068;SDS011;1545;51.728;8.796;2023-03-11T16:05:36;3.70;;;2.10;;
3068;SDS011;1545;51.728;8.796;2023-03-11T16:08:01;6.53;;;2.40;;
3068;SDS011;1545;51.728;8.796;2023-03-11T16:10:27;5.40;;;2.57;;
3068;SDS011;1545;51.728;8.796;2023-03-11T16:12:53;10.27;;;2.77;;
3068;SDS011;1545;51.728;8.796;2023-03-11T16:17:52;6.10;;;2.50;;
3068;SDS011;1545;51.728;8.796;2023-03-11T16:20:19;6.50;;;2.80;;
3068;SDS011;1545;51.728;8.796;2023-03-11T16:22:46;9.23;;;2.47;;
3068;SDS011;1545;51.728;8.796;2023-03-11T16:25:18;5.97;;;2.50;;
3068;SDS011;1545;51.728;8.796;2023-03-11T16:27:48;9.47;;;2.67;;
3068;SDS011;1545;51.728;8.796;2023-03-11T16:30:15;7.83;;;2.67;;
3068;SDS011;1545;51.728;8.796;2023-03-11T16:32:41;5.30;;;2.30;;